createdAt,value
2023-11-01T00:04:36.582Z,100550.31
2023-11-01T00:09:33.960Z,100519.22
2023-11-01T00:14:31.018Z,100417.81
2023-11-01T00:19:27.895Z,100520.47
2023-11-01T00:24:25.428Z,100526.06
2023-11-01T00:29:22.903Z,100524.88
2023-11-01T00:34:19.768Z,100506.28
2023-11-01T00:39:16.627Z,100504.44
2023-11-01T00:44:14.215Z,100551.38
2023-11-01T00:49:11.884Z,100517.69
2023-11-01T00:54:08.744Z,100541.53
2023-11-01T00:59:05.845Z,100551.38
2023-11-01T01:04:04.337Z,100529.50
2023-11-01T01:09:01.874Z,100545.38
2023-11-01T01:13:59.060Z,100568.59
2023-11-01T01:18:55.961Z,100580.28
2023-11-01T01:23:53.565Z,100606.00
2023-11-01T01:28:51.081Z,100611.38
2023-11-01T01:33:47.899Z,100617.72
2023-11-01T01:38:44.726Z,100607.03
2023-11-01T01:43:42.311Z,100592.56
2023-11-01T01:48:41.688Z,100595.13
2023-11-01T01:53:41.230Z,100635.59
2023-11-01T01:58:41.579Z,100649.25
2023-11-01T02:03:39.252Z,100644.19
2023-11-01T02:08:37.318Z,100640.06
2023-11-01T02:13:34.244Z,100676.50
2023-11-01T02:18:31.153Z,100696.50
2023-11-01T02:23:33.251Z,100713.66
2023-11-01T02:28:30.936Z,100725.94
2023-11-01T02:33:28.035Z,100693.63
2023-11-01T02:38:24.988Z,100698.41
2023-11-01T02:43:22.633Z,100657.41
2023-11-01T02:48:19.951Z,100712.03
2023-11-01T02:53:16.781Z,100731.28
2023-11-01T02:58:13.915Z,100725.44
2023-11-01T03:03:12.164Z,100709.84
2023-11-01T03:08:09.843Z,100735.38
2023-11-01T03:13:06.779Z,100719.41
2023-11-01T03:18:05.351Z,100724.72
2023-11-01T03:23:02.917Z,100731.44
2023-11-01T03:27:59.879Z,100713.13
2023-11-01T03:32:56.807Z,100720.53
2023-11-01T03:37:53.681Z,100725.59
2023-11-01T03:42:51.298Z,100704.91
2023-11-01T03:47:49.586Z,100669.88
2023-11-01T03:52:46.492Z,100711.59
2023-11-01T03:57:43.361Z,100693.34
2023-11-01T04:02:40.928Z,100690.00
2023-11-01T04:07:37.891Z,100693.66
2023-11-01T04:12:34.849Z,100678.19
2023-11-01T04:17:31.941Z,100727.81
2023-11-01T04:22:29.499Z,100735.75
2023-11-01T04:27:26.819Z,100762.41
2023-11-01T04:32:29.003Z,100771.03
2023-11-01T04:37:26.941Z,100774.22
2023-11-01T04:42:27.798Z,100770.97
2023-11-01T04:47:24.731Z,100756.13
2023-11-01T04:52:22.858Z,100750.91
2023-11-01T04:57:19.732Z,100761.84
2023-11-01T05:02:17.232Z,100721.66
2023-11-01T05:07:14.182Z,100735.69
2023-11-01T05:12:11.352Z,100718.25
2023-11-01T05:17:08.262Z,100795.28
2023-11-01T05:22:06.546Z,100786.75
2023-11-01T05:27:03.560Z,100834.66
2023-11-01T05:32:00.555Z,100845.91
2023-11-01T05:36:57.594Z,100824.38
2023-11-01T05:41:55.197Z,100859.38
2023-11-01T05:46:53.106Z,100828.00
2023-11-01T05:51:50.904Z,100802.69
2023-11-01T05:56:47.812Z,100856.81
2023-11-01T06:01:47.923Z,100865.94
2023-11-01T06:06:45.718Z,100813.97
2023-11-01T06:11:43.834Z,100841.38
2023-11-01T06:16:40.837Z,100887.94
2023-11-01T06:21:39.772Z,100844.97
2023-11-01T06:26:36.614Z,100873.69
2023-11-01T06:31:33.593Z,100803.59
2023-11-01T06:36:30.490Z,100807.69
2023-11-01T06:41:28.490Z,100840.78
2023-11-01T06:46:25.575Z,100844.59
2023-11-01T06:51:24.536Z,100839.81
2023-11-01T06:56:23.223Z,100917.72
2023-11-01T07:01:20.973Z,100910.94
2023-11-01T07:06:17.940Z,100880.88
2023-11-01T07:11:14.842Z,100880.16
2023-11-01T07:16:11.958Z,100817.78
2023-11-01T07:21:10.906Z,100868.38
2023-11-01T07:26:08.451Z,100925.03
2023-11-01T07:31:05.867Z,100803.66
2023-11-01T07:36:03.268Z,100869.25
2023-11-01T07:41:01.228Z,100846.03
2023-11-01T07:45:58.285Z,100921.84
2023-11-01T07:50:55.462Z,100936.53
2023-11-01T07:55:54.487Z,100823.25
2023-11-01T08:00:52.316Z,100893.16
2023-11-01T08:05:49.236Z,100875.75
2023-11-01T08:10:46.122Z,100919.94
2023-11-01T08:15:43.145Z,100925.03
2023-11-01T08:20:40.924Z,100909.28
2023-11-01T08:25:38.637Z,100910.13
2023-11-01T08:30:35.542Z,100928.97
2023-11-01T08:35:32.471Z,100937.44
2023-11-01T08:40:29.956Z,100932.22
2023-11-01T08:45:26.744Z,100948.38
2023-11-01T08:50:23.573Z,100895.50
2023-11-01T08:55:20.485Z,100944.28
2023-11-01T09:00:18.740Z,100952.84
2023-11-01T09:05:16.465Z,100959.56
2023-11-01T09:10:13.582Z,100954.31
2023-11-01T09:15:10.601Z,100935.69
2023-11-01T09:20:09.126Z,100935.28
2023-11-01T09:25:07.086Z,100939.13
2023-11-01T09:30:05.232Z,100946.16
2023-11-01T09:35:02.165Z,100936.25
2023-11-01T09:39:59.974Z,100928.69
2023-11-01T09:44:58.056Z,100889.34
2023-11-01T09:49:55.507Z,100933.06
2023-11-01T09:54:52.380Z,100919.59
2023-11-01T09:59:50.708Z,100927.53
2023-11-01T10:04:47.642Z,100918.88
2023-11-01T10:09:44.471Z,100909.19
2023-11-01T10:14:44.772Z,100883.03
2023-11-01T10:19:43.521Z,100849.25
2023-11-01T10:24:42.096Z,100906.03
2023-11-01T10:29:43.668Z,100899.47
2023-11-01T10:34:40.546Z,100899.44
2023-11-01T10:39:40.577Z,100914.84
2023-11-01T10:44:39.100Z,100906.41
2023-11-01T10:49:37.758Z,100879.03
2023-11-01T10:54:36.305Z,100878.69
2023-11-01T10:59:44.323Z,100804.69
2023-11-01T11:04:48.005Z,100910.00
2023-11-01T11:09:45.384Z,100901.63
2023-11-01T11:14:44.236Z,100896.56
2023-11-01T11:20:13.434Z,100905.66
2023-11-01T11:25:50.433Z,100877.25
2023-11-01T11:31:09.594Z,100895.25
2023-11-01T11:36:15.174Z,100851.91
2023-11-01T11:41:13.842Z,100898.28
2023-11-01T11:46:31.802Z,100894.25
2023-11-01T11:51:30.535Z,100875.06
2023-11-01T11:56:27.978Z,100891.56
2023-11-01T12:01:26.556Z,100884.84
2023-11-01T12:06:24.965Z,100881.97
2023-11-01T12:11:28.819Z,100904.66
2023-11-01T12:16:27.170Z,100906.16
2023-11-01T12:21:24.803Z,100910.38
2023-11-01T12:26:21.781Z,100913.22
2023-11-01T12:31:24.618Z,100916.06
2023-11-01T12:36:29.774Z,100922.25
2023-11-01T12:41:26.831Z,100908.50
2023-11-01T12:46:23.768Z,100937.69
2023-11-01T12:51:20.707Z,100915.50
2023-11-01T12:56:19.605Z,100915.03
2023-11-01T13:01:18.282Z,100933.34
2023-11-01T13:06:16.225Z,100906.66
2023-11-01T13:11:13.701Z,100939.72
2023-11-01T13:16:11.375Z,100886.41
2023-11-01T13:21:11.167Z,100928.34
2023-11-01T13:26:09.610Z,100911.13
2023-11-01T13:31:06.695Z,100843.97
2023-11-01T13:36:05.214Z,100917.94
2023-11-01T13:41:02.323Z,100921.13
2023-11-01T13:46:00.889Z,100901.13
2023-11-01T13:50:57.957Z,100901.56
2023-11-01T13:55:55.619Z,100942.97
2023-11-01T14:00:52.609Z,100931.63
2023-11-01T14:05:49.518Z,100925.22
2023-11-01T14:10:48.164Z,100946.06
2023-11-01T14:15:46.285Z,100952.41
2023-11-01T14:20:43.186Z,100897.03
2023-11-01T14:25:40.279Z,100918.13
2023-11-01T14:30:37.124Z,100886.78
2023-11-01T14:35:34.725Z,100902.81
2023-11-01T14:40:31.797Z,100919.41
2023-11-01T14:45:29.404Z,100956.41
2023-11-01T14:50:29.559Z,100964.00
2023-11-01T14:55:27.410Z,100961.88
2023-11-01T15:00:25.078Z,100973.66
2023-11-01T15:05:24.373Z,100989.94
2023-11-01T15:10:22.687Z,100960.06
2023-11-01T15:15:21.002Z,100964.22
2023-11-01T15:20:18.296Z,100986.69
2023-11-01T15:25:15.444Z,101003.94
2023-11-01T15:30:15.118Z,100995.19
2023-11-01T15:35:13.137Z,101003.28
2023-11-01T15:40:10.747Z,101011.34
2023-11-01T15:45:10.014Z,101003.06
2023-11-01T15:50:08.034Z,101014.78
2023-11-01T15:55:07.731Z,101033.03
2023-11-01T16:00:07.147Z,101035.25
2023-11-01T16:05:04.537Z,101036.91
2023-11-01T16:10:01.548Z,101031.25
2023-11-01T16:14:59.375Z,101045.41
2023-11-01T16:20:00.697Z,100985.22
2023-11-01T16:25:06.788Z,101010.50
2023-11-01T16:30:09.403Z,100980.88
2023-11-01T16:35:07.514Z,101056.38
2023-11-01T16:40:06.041Z,100977.75
2023-11-01T16:45:03.378Z,101021.94
2023-11-01T16:50:01.265Z,100955.03
2023-11-01T16:54:58.623Z,101016.47
2023-11-01T16:59:55.636Z,100958.44
2023-11-01T17:04:52.673Z,100927.97
2023-11-01T17:09:50.490Z,101023.25
2023-11-01T17:14:50.158Z,100999.94
2023-11-01T17:19:47.913Z,101025.44
2023-11-01T17:25:01.368Z,100992.19
2023-11-01T17:29:59.848Z,101040.69
2023-11-01T17:34:56.813Z,100972.38
2023-11-01T17:39:56.792Z,101029.13
2023-11-01T17:44:54.207Z,101080.06
2023-11-01T17:49:53.829Z,101097.13
2023-11-01T17:54:51.753Z,101080.41
2023-11-01T17:59:50.860Z,101106.16
2023-11-01T18:04:48.095Z,101067.13
2023-11-01T18:09:45.151Z,101050.22
2023-11-01T18:14:43.113Z,101102.00
2023-11-01T18:19:41.586Z,101024.84
2023-11-01T18:24:40.278Z,101098.19
2023-11-01T18:29:37.807Z,101071.50
2023-11-01T18:34:40.622Z,101124.78
2023-11-01T18:39:38.560Z,101112.25
2023-11-01T18:44:37.213Z,101101.44
2023-11-01T18:49:59.549Z,101143.88
2023-11-01T18:54:57.326Z,101120.81
2023-11-01T18:59:54.386Z,101126.44
2023-11-01T19:04:51.702Z,101071.22
2023-11-01T19:09:48.652Z,101124.22
2023-11-01T19:14:46.499Z,101106.19
2023-11-01T19:19:47.733Z,101106.31
2023-11-01T19:24:46.705Z,101118.06
2023-11-01T19:29:44.604Z,101107.53
2023-11-01T19:34:42.363Z,101111.78
2023-11-01T19:39:40.201Z,101112.75
2023-11-01T19:44:37.949Z,101116.25
2023-11-01T19:49:35.400Z,101071.22
2023-11-01T19:54:34.814Z,101102.22
2023-11-01T19:59:33.664Z,101098.22
2023-11-01T20:04:30.632Z,101104.50
2023-11-01T20:09:33.845Z,101106.41
2023-11-01T20:14:31.783Z,101103.03
2023-11-01T20:19:29.766Z,101090.94
2023-11-01T20:24:26.695Z,101088.22
2023-11-01T20:29:24.764Z,101091.44
2023-11-01T20:34:22.497Z,101052.31
2023-11-01T20:39:21.058Z,101031.22
2023-11-01T20:44:20.676Z,101067.09
2023-11-01T20:49:19.828Z,101053.75
2023-11-01T20:54:20.541Z,101067.44
2023-11-01T20:59:17.699Z,101059.41
2023-11-01T21:04:14.727Z,101066.09
2023-11-01T21:09:14.553Z,101022.38
2023-11-01T21:14:12.260Z,101053.28
2023-11-01T21:19:09.778Z,101052.63
2023-11-01T21:29:07.066Z,101015.09
2023-11-01T21:34:06.793Z,101052.31
2023-11-01T21:39:05.695Z,100971.22
2023-11-01T21:44:05.173Z,101068.75
2023-11-01T21:49:03.197Z,101063.00
2023-11-01T21:54:05.463Z,101053.69
2023-11-01T21:59:09.913Z,101042.44
2023-11-01T22:04:21.375Z,101017.13
2023-11-01T22:09:21.527Z,101024.44
2023-11-01T22:14:38.384Z,101014.25
2023-11-01T22:19:37.293Z,101018.69
2023-11-01T22:24:37.567Z,101045.88
2023-11-01T22:29:45.674Z,101012.25
2023-11-01T22:34:44.230Z,101032.13
2023-11-01T22:39:42.912Z,101012.28
2023-11-01T22:44:43.977Z,101025.09
2023-11-01T22:49:40.883Z,101017.13
2023-11-01T22:54:38.822Z,101018.72
2023-11-01T22:59:37.673Z,100991.00
2023-11-01T23:04:35.231Z,101006.09
2023-11-01T23:09:32.535Z,100961.88
2023-11-01T23:14:29.554Z,100994.13
2023-11-01T23:19:27.280Z,101002.63
2023-11-01T23:24:24.536Z,101004.53
2023-11-01T23:29:24.925Z,100993.41
2023-11-01T23:34:44.233Z,100999.22
2023-11-01T23:39:41.075Z,100998.38
2023-11-01T23:44:38.031Z,101005.69
2023-11-01T23:49:53.795Z,101010.66
2023-11-01T23:54:54.592Z,100954.22
